Overview Statistics Trail Chart Weather Telemetry Raw packets
 

This is the latest recevied weather packets stored in our database for station/object KQ4PPF. If no packets are shown the sender has not sent any weather packets the latest 10 day(s).

<< 1 2 3 4 >>
Time Temp. Humidity Pressure Rain* Wind** Luminosity Snow
1788620634 34.44° C 63% 1013.9 hPa 0 mm - 302 W/m² -
1788620331 34.44° C 63% 1013.9 hPa 0 mm - 302 W/m² -
1788620026 34.44° C 62% 1014.3 hPa 0 mm - 546 W/m² -
1788619725 33.33° C 65% 1014.4 hPa 0 mm - 599 W/m² -
1788619421 33.33° C 67% 1014.2 hPa 0 mm - 541 W/m² -
1788619119 33.33° C 67% 1014.6 hPa 0 mm - 521 W/m² -
1788618814 33.89° C 65% 1014.3 hPa 0 mm - 501 W/m² -
1788618514 33.33° C 67% 1014.4 hPa 0 mm - 556 W/m² -
1788618212 32.22° C 68% 1014.3 hPa 0 mm - 542 W/m² -
1788617909 33.33° C 67% 1014.3 hPa 0 mm - 514 W/m² -
1788617604 32.22° C 72% 1014.6 hPa 0 mm - 474 W/m² -
1788617300 31.67° C 73% 1014.2 hPa 0 mm - 463 W/m² -
1788616999 31.11° C 74% 1014.5 hPa 0 mm - 446 W/m² -
1788616698 31.11° C 73% 1014.5 hPa 0 mm - 479 W/m² -
1788616394 31.11° C 74% 1014.5 hPa 0 mm - 410 W/m² -
1788616089 30.56° C 76% 1014.5 hPa 0 mm - 421 W/m² -
1788615783 30° C 78% 1014.2 hPa 0 mm - 393 W/m² -
1788615477 31.67° C 74% 1014.5 hPa 0 mm - 385 W/m² -
1788615173 31.11° C 74% 1014.8 hPa 0 mm - 343 W/m² -
1788614872 30° C 79% 1014.8 hPa 0 mm - 293 W/m² -
1788614567 28.33° C 84% 1014.9 hPa 0 mm - 266 W/m² -
1788614262 28.89° C 85% 1014.9 hPa 0 mm - 278 W/m² -
1788613957 27.78° C 88% 1014.8 hPa 0 mm - 228 W/m² -
1788613651 27.22° C 88% 1014.9 hPa 0 mm - 67 W/m² -
1788613351 26.67° C 89% 1014.9 hPa 0 mm - 62 W/m² -

* Rain latest hour (hover to see other rain measurements)
** Current wind speed in m/s (hover to see current wind gust speed)